Time;durP1;ratioP1;P1;durP2;ratioP2;P2;SDS_P1;SDS_P2;PMS_P1;PMS_P2;Temp;Humidity;BMP_temperature;BMP_pressure;BME280_temperature;BME280_humidity;BME280_pressure;Samples;Min_cycle;Max_cycle;Signal;HPM_P1;HPM_P2
2021/12/22 00:00:26;;;;;;;5.45;1.50;;;19.30;59.10;;;;;;4494894;31;20576;-75
2021/12/22 00:02:52;;;;;;;5.53;1.95;;;19.30;58.20;;;;;;4497581;31;20283;-75
2021/12/22 00:05:26;;;;;;;4.20;1.23;;;19.20;58.20;;;;;;4495201;31;20691;-75
2021/12/22 00:07:53;;;;;;;5.57;2.00;;;19.20;58.30;;;;;;4495859;31;20148;-75
2021/12/22 00:10:19;;;;;;;7.15;1.80;;;19.20;58.30;;;;;;4482573;31;20145;-75
2021/12/22 00:12:47;;;;;;;6.68;1.63;;;19.20;58.40;;;;;;4496322;31;20116;-75
2021/12/22 00:15:14;;;;;;;9.52;1.95;;;19.20;58.40;;;;;;4497222;31;20125;-76
2021/12/22 00:17:40;;;;;;;3.78;1.65;;;19.20;58.40;;;;;;4495750;31;20149;-75
2021/12/22 00:20:09;;;;;;;6.32;1.88;;;19.10;58.30;;;;;;4495987;31;20658;-75
2021/12/22 00:22:35;;;;;;;5.30;1.58;;;19.10;58.40;;;;;;4481661;31;20266;-75
2021/12/22 00:25:01;;;;;;;4.93;1.50;;;19.10;58.50;;;;;;4496786;31;20270;-75
2021/12/22 00:27:27;;;;;;;3.65;1.30;;;19.10;58.50;;;;;;4495488;31;20142;-75
2021/12/22 00:29:53;;;;;;;6.15;1.83;;;19.00;58.40;;;;;;4481865;31;20568;-75
2021/12/22 00:32:20;;;;;;;3.58;1.58;;;19.00;58.50;;;;;;4497248;31;20171;-75
2021/12/22 00:34:54;;;;;;;3.83;1.65;;;19.00;58.50;;;;;;4495527;31;20255;-75
2021/12/22 00:37:24;;;;;;;5.40;1.90;;;19.00;58.60;;;;;;4497110;31;20136;-75
2021/12/22 00:39:52;;;;;;;6.55;1.80;;;19.00;58.60;;;;;;4495102;31;20633;-75
2021/12/22 00:42:19;;;;;;;5.50;1.55;;;19.00;58.60;;;;;;4496291;31;20266;-75
2021/12/22 00:44:50;;;;;;;4.93;1.50;;;19.00;58.60;;;;;;4496483;31;20120;-75
2021/12/22 00:47:17;;;;;;;3.53;1.38;;;18.90;58.60;;;;;;4495614;31;20570;-75
2021/12/22 00:49:43;;;;;;;3.97;1.63;;;18.90;58.60;;;;;;4495495;31;20147;-75
2021/12/22 00:52:10;;;;;;;4.57;1.60;;;18.90;58.70;;;;;;4495795;31;20132;-75
2021/12/22 00:54:36;;;;;;;2.85;1.40;;;18.90;59.60;;;;;;4496196;31;20266;-75
2021/12/22 00:57:05;;;;;;;5.95;1.40;;;18.90;58.70;;;;;;4494800;31;20209;-76
2021/12/22 00:59:33;;;;;;;4.97;1.60;;;18.80;58.60;;;;;;4495546;31;20189;-75
2021/12/22 01:02:01;;;;;;;3.95;1.25;;;18.80;58.70;;;;;;4495358;31;20282;-76
2021/12/22 01:04:27;;;;;;;4.20;1.45;;;18.80;58.70;;;;;;4495296;31;20143;-75
2021/12/22 01:06:53;;;;;;;3.67;1.80;;;18.80;58.80;;;;;;4496406;31;20128;-75
2021/12/22 01:09:20;;;;;;;3.83;1.73;;;18.80;58.80;;;;;;4495467;31;20159;-71
2021/12/22 01:11:46;;;;;;;4.68;1.55;;;18.80;58.80;;;;;;4481983;31;20297;-77
2021/12/22 01:14:12;;;;;;;4.65;1.63;;;18.70;58.80;;;;;;4495503;31;20140;-77
2021/12/22 01:16:39;;;;;;;4.28;1.80;;;18.70;58.80;;;;;;4495150;31;20152;-81
2021/12/22 01:19:11;;;;;;;3.35;1.55;;;18.70;58.90;;;;;;4495004;31;20120;-70
2021/12/22 01:21:52;;;;;;;4.87;1.50;;;18.70;58.90;;;;;;4494072;31;20143;-77
2021/12/22 01:24:33;;;;;;;3.58;1.25;;;18.70;59.00;;;;;;4495118;31;20143;-77
2021/12/22 01:27:12;;;;;;;5.65;1.42;;;18.70;59.10;;;;;;4494738;31;20565;-75
2021/12/22 01:29:39;;;;;;;2.72;1.20;;;18.60;59.00;;;;;;4495281;31;20158;-79
2021/12/22 01:32:09;;;;;;;3.83;1.17;;;18.60;59.10;;;;;;4496306;31;20198;-74
2021/12/22 01:34:34;;;;;;;3.83;1.48;;;18.60;59.10;;;;;;4495054;31;20558;-77
2021/12/22 01:37:00;;;;;;;2.67;1.23;;;18.60;59.10;;;;;;4494911;31;20144;-75
2021/12/22 01:39:26;;;;;;;3.75;1.55;;;18.60;59.10;;;;;;4493916;31;20246;-75
2021/12/22 01:41:53;;;;;;;3.72;1.50;;;18.60;59.20;;;;;;4495281;31;20274;-75
2021/12/22 01:45:24;;;;;;;3.13;1.30;;;18.60;59.20;;;;;;4494162;31;20143;-73
2021/12/22 01:50:42;;;;;;;4.47;1.27;;;18.50;59.20;;;;;;4494466;31;20159;-74
2021/12/22 01:53:21;;;;;;;2.47;1.33;;;18.50;59.30;;;;;;4495617;31;20144;-72
2021/12/22 01:56:07;;;;;;;2.85;1.15;;;18.50;59.30;;;;;;4494531;31;20584;-72
2021/12/22 01:58:43;;;;;;;2.28;1.20;;;18.50;59.20;;;;;;4495342;31;20129;-73
2021/12/22 02:01:10;;;;;;;3.10;1.20;;;18.50;59.30;;;;;;4494876;31;20132;-72
2021/12/22 02:03:40;;;;;;;5.63;1.02;;;18.50;59.30;;;;;;4493762;31;20154;-71
2021/12/22 02:06:06;;;;;;;3.30;1.30;;;18.50;59.20;;;;;;4497132;31;20192;-73
2021/12/22 02:08:33;;;;;;;2.25;1.50;;;18.50;59.30;;;;;;4494166;31;20195;-73
2021/12/22 02:10:59;;;;;;;1.90;1.10;;;18.50;59.20;;;;;;4501960;31;20129;-74
2021/12/22 02:13:31;;;;;;;3.88;1.40;;;18.50;59.30;;;;;;4494612;31;20131;-73
2021/12/22 02:16:05;;;;;;;2.75;1.25;;;18.50;59.30;;;;;;4494227;31;20159;-73
2021/12/22 02:18:33;;;;;;;5.38;1.20;;;18.40;59.20;;;;;;4480427;31;20140;-73
2021/12/22 02:20:59;;;;;;;4.75;1.10;;;18.40;59.30;;;;;;4493331;31;20175;-74
2021/12/22 02:23:25;;;;;;;5.18;1.85;;;18.40;59.30;;;;;;4496991;31;20856;-73
2021/12/22 02:25:56;;;;;;;2.25;1.10;;;18.40;59.30;;;;;;4494816;31;20201;-74
2021/12/22 02:28:27;;;;;;;3.38;1.42;;;18.40;59.30;;;;;;4494108;31;20120;-73
2021/12/22 02:30:54;;;;;;;2.60;1.45;;;18.30;59.30;;;;;;4500658;31;20136;-72
2021/12/22 02:33:26;;;;;;;3.90;1.48;;;18.30;59.30;;;;;;4509932;31;20143;-73
2021/12/22 02:36:07;;;;;;;2.90;1.40;;;18.30;59.30;;;;;;4509684;31;20147;-73
2021/12/22 02:38:41;;;;;;;3.95;1.30;;;18.30;59.30;;;;;;4509039;31;20168;-73
2021/12/22 02:41:11;;;;;;;3.30;1.40;;;18.30;59.40;;;;;;4511002;31;20197;-73
2021/12/22 02:43:45;;;;;;;4.22;1.52;;;18.30;59.50;;;;;;4510188;31;20270;-73
2021/12/22 02:46:12;;;;;;;2.80;1.20;;;18.30;59.50;;;;;;4510755;31;20636;-73
2021/12/22 02:48:38;;;;;;;4.28;1.40;;;18.20;59.50;;;;;;4509375;31;20140;-73
2021/12/22 02:51:05;;;;;;;2.20;1.33;;;18.20;59.50;;;;;;4508900;31;20147;-73
2021/12/22 03:04:05;;;;;;;2.88;1.38;;;18.10;59.50;;;;;;4509899;31;20138;-73
2021/12/22 03:06:42;;;;;;;3.30;1.20;;;18.10;59.50;;;;;;4510909;31;20124;-73
2021/12/22 03:09:29;;;;;;;2.60;1.30;;;18.10;59.50;;;;;;4471613;31;20290;-73
2021/12/22 03:11:58;;;;;;;1.73;1.02;;;18.10;59.40;;;;;;4510073;31;20147;-73
2021/12/22 03:14:25;;;;;;;2.13;1.20;;;18.10;59.50;;;;;;4510366;31;20680;-73
2021/12/22 03:16:52;;;;;;;2.78;1.33;;;18.10;59.50;;;;;;4508660;31;20128;-73
2021/12/22 03:19:21;;;;;;;1.55;1.20;;;18.10;59.40;;;;;;4509648;31;20136;-73
2021/12/22 03:21:49;;;;;;;2.30;1.00;;;18.10;59.40;;;;;;4509302;31;20505;-74
2021/12/22 03:24:18;;;;;;;2.78;1.30;;;18.10;59.50;;;;;;4509677;31;20124;-73
2021/12/22 03:26:44;;;;;;;2.03;1.05;;;18.00;59.40;;;;;;4508718;31;20759;-73
2021/12/22 03:29:13;;;;;;;2.08;1.00;;;18.00;59.40;;;;;;4510332;31;20213;-73
2021/12/22 03:31:39;;;;;;;2.80;1.20;;;18.00;59.40;;;;;;4510342;31;20120;-73
2021/12/22 03:34:07;;;;;;;1.95;1.20;;;18.00;59.40;;;;;;4509667;31;20171;-73
2021/12/22 03:36:33;;;;;;;3.28;1.17;;;18.00;59.40;;;;;;4510677;31;20132;-73
2021/12/22 03:39:00;;;;;;;4.53;1.80;;;17.90;59.40;;;;;;4509335;31;20128;-73
2021/12/22 03:41:26;;;;;;;1.70;1.15;;;17.90;59.30;;;;;;4510573;31;20133;-73
2021/12/22 03:43:52;;;;;;;2.20;1.27;;;17.90;59.40;;;;;;4509517;31;20120;-73
2021/12/22 03:46:18;;;;;;;3.40;1.60;;;17.90;59.30;;;;;;4509004;31;20234;-73
2021/12/22 03:48:44;;;;;;;2.22;1.38;;;17.90;59.40;;;;;;4508960;31;20124;-73
2021/12/22 03:51:10;;;;;;;1.75;1.10;;;17.90;59.30;;;;;;4508517;31;20128;-73
2021/12/22 03:53:37;;;;;;;2.00;1.15;;;17.90;59.40;;;;;;4510442;31;20139;-73
2021/12/22 03:56:03;;;;;;;4.32;2.03;;;17.80;59.30;;;;;;4509280;31;20170;-73
2021/12/22 03:58:29;;;;;;;2.13;1.27;;;17.80;59.20;;;;;;4509177;31;20124;-72
2021/12/22 04:00:56;;;;;;;3.03;1.10;;;17.80;59.20;;;;;;4508905;31;20143;-72
2021/12/22 04:03:26;;;;;;;1.98;1.20;;;17.80;59.20;;;;;;4495924;31;20147;-73
2021/12/22 04:05:52;;;;;;;3.22;1.50;;;17.80;59.20;;;;;;4508652;31;20128;-73
2021/12/22 04:08:18;;;;;;;1.80;1.10;;;17.80;59.20;;;;;;4508247;31;20139;-73
2021/12/22 04:10:49;;;;;;;1.83;1.23;;;17.80;59.20;;;;;;4510275;31;20558;-73
2021/12/22 04:13:15;;;;;;;2.55;1.38;;;17.80;59.20;;;;;;4497861;31;20278;-73
2021/12/22 04:15:42;;;;;;;3.17;0.98;;;17.70;59.10;;;;;;4512996;31;20194;-73
2021/12/22 04:18:08;;;;;;;2.42;1.30;;;17.70;59.10;;;;;;4512039;31;20543;-73
2021/12/22 04:20:34;;;;;;;3.15;1.23;;;17.70;59.10;;;;;;4511442;31;20121;-73
2021/12/22 04:23:01;;;;;;;2.45;1.20;;;17.70;59.10;;;;;;4511364;31;20673;-73
2021/12/22 04:25:27;;;;;;;2.42;1.42;;;17.70;59.10;;;;;;4511082;31;20132;-73
2021/12/22 04:28:02;;;;;;;2.17;1.35;;;17.60;59.10;;;;;;4512878;31;20132;-72
2021/12/22 04:30:28;;;;;;;2.72;1.20;;;17.60;59.10;;;;;;4510875;31;20151;-73
2021/12/22 04:32:55;;;;;;;2.28;1.38;;;17.60;59.00;;;;;;4512807;31;20124;-73
2021/12/22 04:35:21;;;;;;;2.08;1.17;;;17.60;59.00;;;;;;4512054;31;20696;-72
2021/12/22 04:37:47;;;;;;;3.10;1.45;;;17.60;59.00;;;;;;4511238;31;20138;-73
2021/12/22 04:40:13;;;;;;;2.47;1.45;;;17.60;59.00;;;;;;4511021;31;20116;-73
2021/12/22 04:42:39;;;;;;;1.60;1.20;;;17.60;59.00;;;;;;4510611;31;20136;-73
2021/12/22 04:45:07;;;;;;;2.15;1.25;;;17.60;59.00;;;;;;4512579;31;20143;-73
2021/12/22 04:47:33;;;;;;;1.77;1.20;;;17.50;58.90;;;;;;4497606;31;20140;-73
2021/12/22 04:50:01;;;;;;;2.88;1.30;;;17.50;59.00;;;;;;4512403;31;20147;-72
2021/12/22 04:52:36;;;;;;;1.92;1.27;;;17.50;59.00;;;;;;4497585;31;20210;-72
2021/12/22 04:55:04;;;;;;;2.20;1.30;;;17.50;59.50;;;;;;4510532;31;20128;-72
2021/12/22 04:57:31;;;;;;;2.67;1.20;;;17.50;58.90;;;;;;4511264;31;20144;-72
2021/12/22 04:59:58;;;;;;;1.88;1.48;;;17.50;59.00;;;;;;4510492;31;20147;-72
2021/12/22 05:02:23;;;;;;;2.28;1.30;;;17.50;58.90;;;;;;4511290;31;20144;-72
2021/12/22 05:04:49;;;;;;;2.95;1.33;;;17.50;58.90;;;;;;4510335;31;20559;-72
2021/12/22 05:07:15;;;;;;;3.08;1.50;;;17.40;58.80;;;;;;4511781;31;20654;-72
2021/12/22 05:09:41;;;;;;;2.20;1.10;;;17.40;58.80;;;;;;4510327;31;20160;-73
2021/12/22 05:12:08;;;;;;;2.58;1.65;;;17.40;58.90;;;;;;4510579;31;20460;-72
2021/12/22 05:14:33;;;;;;;2.08;1.30;;;17.40;58.80;;;;;;4511261;31;20475;-72
2021/12/22 05:17:02;;;;;;;2.33;1.10;;;17.40;58.80;;;;;;4511267;31;20128;-72
2021/12/22 05:19:30;;;;;;;2.28;1.48;;;17.40;58.80;;;;;;4511407;31;20567;-72
2021/12/22 05:21:56;;;;;;;1.70;1.10;;;17.40;58.80;;;;;;4510795;31;20710;-72
2021/12/22 05:24:23;;;;;;;2.22;1.30;;;17.30;58.80;;;;;;4511737;31;20631;-72
2021/12/22 05:26:50;;;;;;;1.58;1.20;;;17.30;58.80;;;;;;4511313;31;20154;-72
2021/12/22 05:29:16;;;;;;;2.20;1.38;;;17.30;58.80;;;;;;4511190;31;20144;-73
2021/12/22 05:31:42;;;;;;;2.85;1.48;;;17.30;58.80;;;;;;4511562;31;20258;-73
2021/12/22 05:34:08;;;;;;;2.08;1.17;;;17.30;58.80;;;;;;4509850;31;20166;-72
2021/12/22 05:36:34;;;;;;;2.30;1.42;;;17.30;58.70;;;;;;4511985;31;20206;-73
2021/12/22 05:39:01;;;;;;;1.60;1.27;;;17.30;58.80;;;;;;4509757;31;20266;-72
2021/12/22 05:41:26;;;;;;;3.35;1.33;;;17.30;58.70;;;;;;4510329;31;20290;-72
2021/12/22 05:43:52;;;;;;;1.77;1.33;;;17.30;58.70;;;;;;4510105;31;20124;-72
2021/12/22 05:46:21;;;;;;;3.20;1.63;;;17.20;58.60;;;;;;4510010;31;20262;-72
2021/12/22 05:48:48;;;;;;;2.90;1.27;;;17.20;58.60;;;;;;4510105;31;20173;-72
2021/12/22 05:51:14;;;;;;;2.17;1.27;;;17.20;58.60;;;;;;4509398;31;20147;-72
2021/12/22 05:53:40;;;;;;;2.20;1.50;;;17.20;58.60;;;;;;4511727;31;20136;-72
2021/12/22 05:56:07;;;;;;;2.53;1.50;;;17.20;58.60;;;;;;4510580;31;20144;-73
2021/12/22 05:58:33;;;;;;;3.10;1.48;;;17.20;58.50;;;;;;4510454;31;20194;-72
2021/12/22 06:00:59;;;;;;;2.03;1.50;;;17.20;58.60;;;;;;4510430;31;20120;-72
2021/12/22 06:03:25;;;;;;;1.90;1.55;;;17.20;58.60;;;;;;4509896;31;20285;-72
2021/12/22 06:05:52;;;;;;;2.78;1.55;;;17.10;58.50;;;;;;4509976;31;20216;-72
2021/12/22 06:08:18;;;;;;;1.85;1.55;;;17.10;58.50;;;;;;4510354;31;20136;-72
2021/12/22 06:10:44;;;;;;;2.65;1.63;;;17.10;58.40;;;;;;4497053;31;20116;-73
2021/12/22 06:13:10;;;;;;;2.00;1.30;;;17.10;58.40;;;;;;4509170;31;20273;-72
2021/12/22 06:15:38;;;;;;;2.75;1.67;;;17.10;58.40;;;;;;4510227;31;20154;-72
2021/12/22 06:18:05;;;;;;;3.25;1.65;;;17.10;58.40;;;;;;4509279;31;20213;-73
2021/12/22 06:20:33;;;;;;;2.92;1.55;;;17.10;58.40;;;;;;4509473;31;20581;-73
2021/12/22 06:22:59;;;;;;;2.63;1.58;;;17.10;58.40;;;;;;4510742;31;20180;-72
2021/12/22 06:25:25;;;;;;;2.97;1.60;;;17.00;58.30;;;;;;4510146;31;20139;-72
2021/12/22 06:27:52;;;;;;;2.97;1.65;;;17.00;58.30;;;;;;4511281;31;20747;-72
2021/12/22 06:30:20;;;;;;;3.15;1.60;;;17.00;58.20;;;;;;4510074;31;20217;-72
2021/12/22 06:32:50;;;;;;;3.15;1.65;;;17.00;58.20;;;;;;4509512;31;20150;-73
2021/12/22 06:35:16;;;;;;;2.75;1.60;;;17.00;58.30;;;;;;4510124;31;20152;-72
2021/12/22 06:37:44;;;;;;;2.65;1.60;;;17.00;58.20;;;;;;4510607;31;20120;-73
2021/12/22 06:40:10;;;;;;;2.63;1.67;;;16.90;58.10;;;;;;4510744;31;20540;-72
2021/12/22 06:42:38;;;;;;;1.67;1.58;;;16.90;58.10;;;;;;4509064;31;20491;-72
2021/12/22 06:45:06;;;;;;;2.88;1.75;;;16.90;58.10;;;;;;4509922;31;20159;-72
2021/12/22 06:47:32;;;;;;;3.30;1.67;;;16.90;58.10;;;;;;4495351;31;20120;-72
2021/12/22 06:49:58;;;;;;;2.60;1.75;;;16.90;58.10;;;;;;4483487;31;20155;-73
2021/12/22 06:52:24;;;;;;;2.17;1.60;;;16.90;58.10;;;;;;4482398;31;20155;-72
2021/12/22 06:54:51;;;;;;;2.47;1.90;;;16.90;58.10;;;;;;4510581;31;20123;-72
2021/12/22 06:57:20;;;;;;;2.85;1.73;;;16.90;58.10;;;;;;4510210;31;20213;-72
2021/12/22 06:59:47;;;;;;;2.00;1.40;;;16.90;58.10;;;;;;4508803;31;20560;-72
2021/12/22 07:02:13;;;;;;;2.63;1.80;;;16.80;58.10;;;;;;4509671;31;20139;-72
2021/12/22 07:04:39;;;;;;;2.00;1.60;;;16.80;58.10;;;;;;4509719;31;20128;-72
2021/12/22 07:07:05;;;;;;;2.38;1.65;;;16.80;58.00;;;;;;4510568;31;20139;-72
2021/12/22 07:09:31;;;;;;;2.05;1.55;;;16.80;58.00;;;;;;4509572;31;20132;-72
2021/12/22 07:11:58;;;;;;;2.60;1.70;;;16.80;58.10;;;;;;4510372;31;20146;-72
2021/12/22 07:14:24;;;;;;;3.10;1.70;;;16.80;58.10;;;;;;4510098;31;20170;-72
2021/12/22 07:16:50;;;;;;;2.40;1.70;;;16.80;58.00;;;;;;4509803;31;20120;-72
2021/12/22 07:19:16;;;;;;;2.95;1.77;;;16.80;58.10;;;;;;4509771;31;20133;-72
2021/12/22 07:21:43;;;;;;;2.45;1.60;;;16.80;58.00;;;;;;4509625;31;20262;-73
2021/12/22 07:24:09;;;;;;;3.22;1.83;;;16.80;58.10;;;;;;4496554;31;20140;-72
2021/12/22 07:26:35;;;;;;;2.28;1.55;;;16.70;58.00;;;;;;4495604;31;20234;-72
2021/12/22 07:29:01;;;;;;;4.07;2.00;;;16.70;58.00;;;;;;4496022;31;20120;-72
2021/12/22 07:31:27;;;;;;;2.00;1.50;;;16.70;58.00;;;;;;4508808;31;20143;-72
2021/12/22 07:34:12;;;;;;;2.13;1.60;;;16.70;58.00;;;;;;4495713;31;20128;-72
2021/12/22 07:36:58;;;;;;;2.15;1.70;;;16.70;58.00;;;;;;4510549;31;20144;-73
2021/12/22 07:39:24;;;;;;;2.40;1.80;;;16.70;58.00;;;;;;4509511;31;20156;-72
2021/12/22 07:41:50;;;;;;;1.92;1.70;;;16.70;58.10;;;;;;4510021;31;20135;-72
2021/12/22 07:44:16;;;;;;;2.40;1.58;;;16.70;58.00;;;;;;4510321;31;20143;-72
2021/12/22 07:46:42;;;;;;;3.03;1.90;;;16.70;58.00;;;;;;4498307;31;20163;-72
2021/12/22 07:49:09;;;;;;;2.35;1.67;;;16.60;57.90;;;;;;4513459;31;20560;-72
2021/12/22 07:51:34;;;;;;;2.35;1.60;;;16.60;58.00;;;;;;4511210;31;20132;-72
2021/12/22 07:54:01;;;;;;;3.33;1.80;;;16.60;58.00;;;;;;4513699;31;20250;-72
2021/12/22 07:56:27;;;;;;;1.98;1.60;;;16.60;57.90;;;;;;4511304;31;20116;-71
2021/12/22 07:58:54;;;;;;;3.38;1.90;;;16.60;58.00;;;;;;4512992;31;20142;-72
2021/12/22 08:01:21;;;;;;;2.15;1.60;;;16.60;57.90;;;;;;4511609;31;20108;-72
2021/12/22 08:03:46;;;;;;;2.25;1.67;;;16.60;58.00;;;;;;4511258;31;20590;-72
2021/12/22 08:06:14;;;;;;;3.38;1.60;;;16.60;57.90;;;;;;4513461;31;20104;-72
2021/12/22 08:08:39;;;;;;;2.15;1.55;;;16.60;57.90;;;;;;4512074;31;20156;-72
2021/12/22 08:11:06;;;;;;;2.00;1.70;;;16.60;57.90;;;;;;4513172;31;20181;-72
2021/12/22 08:13:32;;;;;;;1.92;1.50;;;16.60;57.90;;;;;;4510773;31;20799;-72
2021/12/22 08:15:58;;;;;;;2.97;1.83;;;16.60;58.10;;;;;;4512839;31;20492;-71
2021/12/22 08:18:24;;;;;;;4.70;1.90;;;16.60;58.10;;;;;;4512530;31;20605;-68
2021/12/22 08:20:50;;;;;;;3.35;2.60;;;16.60;58.00;;;;;;4497709;31;20201;-68
2021/12/22 08:23:19;;;;;;;5.88;4.03;;;16.60;57.30;;;;;;4498497;31;20151;-72
2021/12/22 08:25:48;;;;;;;5.10;3.42;;;16.60;56.00;;;;;;4511740;31;20200;-72
2021/12/22 08:28:14;;;;;;;4.82;3.63;;;16.70;55.20;;;;;;4511833;31;20643;-72
2021/12/22 08:30:42;;;;;;;4.57;3.45;;;16.70;55.10;;;;;;4511772;31;20147;-72
2021/12/22 08:33:20;;;;;;;7.13;3.03;;;16.80;55.00;;;;;;4512421;31;20336;-75
2021/12/22 08:38:52;;;;;;;4.45;2.83;;;17.00;54.50;;;;;;4511782;31;20134;-76
2021/12/22 08:41:30;;;;;;;5.18;2.80;;;17.20;54.30;;;;;;4511717;31;20140;-74
2021/12/22 08:44:00;;;;;;;4.60;2.70;;;17.30;54.10;;;;;;4511996;31;20136;-73
2021/12/22 08:46:30;;;;;;;3.80;2.45;;;17.40;53.80;;;;;;4511104;31;20128;-77
2021/12/22 08:48:56;;;;;;;2.95;2.40;;;17.50;53.60;;;;;;4512290;31;20180;-71
2021/12/22 08:51:22;;;;;;;5.28;2.40;;;17.60;53.60;;;;;;4510658;31;20132;-76
2021/12/22 08:53:48;;;;;;;3.70;2.30;;;17.70;53.40;;;;;;4512373;31;20202;-73
2021/12/22 08:56:14;;;;;;;4.18;2.35;;;17.80;53.20;;;;;;4510106;31;20136;-73
2021/12/22 08:58:40;;;;;;;4.28;2.58;;;17.90;53.00;;;;;;4510965;31;20608;-74
2021/12/22 09:01:07;;;;;;;4.35;2.30;;;18.10;52.80;;;;;;4510424;31;20120;-74
2021/12/22 09:03:34;;;;;;;4.65;2.50;;;18.20;52.60;;;;;;4511861;31;20121;-74
2021/12/22 09:06:00;;;;;;;4.30;2.53;;;18.30;52.40;;;;;;4512081;31;20155;-74
2021/12/22 09:08:26;;;;;;;4.00;2.25;;;18.40;52.20;;;;;;4511447;31;20124;-76
2021/12/22 09:10:52;;;;;;;4.05;2.28;;;18.50;51.90;;;;;;4511053;31;20152;-74
2021/12/22 09:13:20;;;;;;;4.28;2.58;;;18.70;51.70;;;;;;4511276;31;20123;-76
2021/12/22 09:15:47;;;;;;;3.92;1.92;;;18.80;51.50;;;;;;4511750;31;20124;-76
2021/12/22 09:18:14;;;;;;;3.30;2.15;;;18.90;51.30;;;;;;4511490;31;20150;-73
2021/12/22 09:20:39;;;;;;;6.82;2.42;;;19.00;51.10;;;;;;4510284;31;20128;-74
2021/12/22 09:23:06;;;;;;;3.03;2.15;;;19.20;50.90;;;;;;4497569;31;20142;-74
2021/12/22 09:25:33;;;;;;;9.05;2.30;;;19.20;50.60;;;;;;4511025;31;20266;-74
2021/12/22 09:28:00;;;;;;;3.13;2.10;;;19.40;50.50;;;;;;4512002;31;20191;-69
2021/12/22 09:30:27;;;;;;;3.40;2.25;;;19.50;50.30;;;;;;4510039;31;20258;-74
2021/12/22 09:32:54;;;;;;;3.58;2.30;;;19.60;50.20;;;;;;4496411;31;20286;-74
2021/12/22 09:35:21;;;;;;;2.80;2.25;;;19.70;50.10;;;;;;4493711;31;20574;-75
2021/12/22 09:37:47;;;;;;;3.50;2.20;;;19.70;49.90;;;;;;4494950;31;20147;-75
2021/12/22 09:40:12;;;;;;;3.95;2.20;;;19.80;49.90;;;;;;4495696;31;20129;-76
2021/12/22 09:42:38;;;;;;;3.33;2.17;;;19.90;49.80;;;;;;4495077;31;20395;-74
2021/12/22 09:45:05;;;;;;;3.70;2.08;;;19.90;49.70;;;;;;4495743;31;20151;-75
2021/12/22 09:47:41;;;;;;;2.30;2.00;;;20.00;49.60;;;;;;4494063;31;20152;-73
2021/12/22 09:50:10;;;;;;;2.63;1.75;;;20.00;49.50;;;;;;4494461;31;20135;-74
2021/12/22 09:52:38;;;;;;;3.33;1.90;;;20.10;49.50;;;;;;4494109;31;20144;-72
2021/12/22 09:55:08;;;;;;;3.28;2.20;;;20.20;49.50;;;;;;4494918;31;20141;-74
2021/12/22 09:57:34;;;;;;;4.75;2.03;;;20.20;49.40;;;;;;4495555;31;20129;-74
2021/12/22 10:00:01;;;;;;;5.82;2.10;;;20.20;49.40;;;;;;4493341;31;20124;-73
2021/12/22 10:02:31;;;;;;;2.88;2.20;;;20.30;49.30;;;;;;4495660;31;20136;-73
2021/12/22 10:04:59;;;;;;;3.38;2.10;;;20.30;49.10;;;;;;4494374;31;20163;-73
2021/12/22 10:07:28;;;;;;;3.42;2.00;;;20.30;49.10;;;;;;4494944;31;20321;-74
2021/12/22 10:09:59;;;;;;;2.85;2.00;;;20.30;49.20;;;;;;4495004;31;20158;-73
2021/12/22 10:12:26;;;;;;;4.30;2.05;;;20.30;49.30;;;;;;4494676;31;20136;-73
2021/12/22 10:14:59;;;;;;;2.83;1.70;;;20.40;49.30;;;;;;4494135;31;20125;-72
2021/12/22 10:17:28;;;;;;;6.32;2.10;;;20.40;49.40;;;;;;4494521;31;20274;-71
2021/12/22 10:19:57;;;;;;;2.80;2.03;;;20.40;49.50;;;;;;4495046;31;20128;-70
2021/12/22 10:22:30;;;;;;;8.20;1.98;;;20.40;49.70;;;;;;4493504;31;20129;-71
2021/12/22 10:25:03;;;;;;;9.75;2.25;;;20.40;49.70;;;;;;4492578;31;20702;-74
2021/12/22 10:27:30;;;;;;;4.75;2.05;;;20.40;49.80;;;;;;4493523;31;20208;-74
2021/12/22 10:29:56;;;;;;;5.88;2.50;;;20.40;49.70;;;;;;4484775;31;20120;-72
2021/12/22 10:32:22;;;;;;;3.97;1.98;;;20.40;49.70;;;;;;4494334;31;20176;-71
2021/12/22 10:35:03;;;;;;;3.50;2.10;;;20.40;49.70;;;;;;4492401;31;20557;-70
2021/12/22 10:37:39;;;;;;;3.72;2.28;;;20.40;49.80;;;;;;4493995;31;20327;-72
2021/12/22 10:40:30;;;;;;;7.63;1.92;;;20.40;49.70;;;;;;4492642;31;20183;-72
2021/12/22 10:42:57;;;;;;;4.00;1.95;;;20.50;49.80;;;;;;4493134;31;20151;-72
2021/12/22 10:45:25;;;;;;;5.03;2.03;;;20.50;49.70;;;;;;4495102;31;20151;-71
2021/12/22 10:50:42;;;;;;;6.07;2.25;;;20.60;49.70;;;;;;4509544;31;20578;-74
2021/12/22 10:53:09;;;;;;;3.53;2.33;;;20.60;49.50;;;;;;4510561;31;20294;-73
2021/12/22 10:55:47;;;;;;;4.47;2.28;;;20.60;49.20;;;;;;4510077;31;20155;-72
2021/12/22 10:58:22;;;;;;;4.07;2.28;;;20.60;49.20;;;;;;4510622;31;20132;-70
2021/12/22 11:01:16;;;;;;;4.13;2.10;;;20.70;49.10;;;;;;4492440;31;20744;-72
2021/12/22 11:03:53;;;;;;;3.40;1.98;;;20.70;49.10;;;;;;4492346;31;20654;-73
2021/12/22 11:06:27;;;;;;;5.28;2.13;;;20.80;49.10;;;;;;4505155;31;20247;-71
2021/12/22 11:09:13;;;;;;;3.63;2.15;;;20.80;49.00;;;;;;4501539;31;20141;-71
2021/12/22 11:11:57;;;;;;;11.25;2.15;;;20.90;49.00;;;;;;4493636;31;20155;-72
2021/12/22 11:14:38;;;;;;;3.20;1.95;;;21.00;49.00;;;;;;4492862;31;20148;-74
2021/12/22 11:17:04;;;;;;;2.75;2.05;;;21.10;48.90;;;;;;4492939;31;20117;-73
2021/12/22 11:19:52;;;;;;;8.02;2.10;;;21.10;48.70;;;;;;4494669;31;20127;-74
2021/12/22 11:22:23;;;;;;;5.13;2.08;;;21.20;48.80;;;;;;4496083;31;20132;-75
2021/12/22 11:24:54;;;;;;;4.07;2.00;;;21.30;48.60;;;;;;4510444;31;20136;-75
2021/12/22 11:27:25;;;;;;;3.42;1.90;;;21.30;48.50;;;;;;4510982;31;20144;-73
2021/12/22 11:29:54;;;;;;;3.28;2.10;;;21.40;48.50;;;;;;4512194;31;20138;-74
2021/12/22 11:32:23;;;;;;;5.70;2.42;;;21.40;49.30;;;;;;4511757;31;20148;-75
2021/12/22 11:34:52;;;;;;;4.57;2.15;;;21.40;48.20;;;;;;4511265;31;20258;-74
2021/12/22 11:37:20;;;;;;;3.47;2.25;;;21.40;48.20;;;;;;4512206;31;20652;-73
2021/12/22 11:39:46;;;;;;;4.32;2.28;;;21.40;48.30;;;;;;4512849;31;20192;-74
2021/12/22 11:42:14;;;;;;;4.53;2.08;;;21.40;48.20;;;;;;4512269;31;20132;-76
2021/12/22 11:44:44;;;;;;;7.75;2.53;;;21.40;48.20;;;;;;4513418;31;20124;-74
2021/12/22 11:47:13;;;;;;;4.07;2.25;;;21.40;48.20;;;;;;4512053;31;20154;-77
2021/12/22 11:50:19;;;;;;;7.78;2.25;;;21.40;48.30;;;;;;4513088;31;20158;-78
2021/12/22 11:53:03;;;;;;;5.68;2.03;;;21.40;48.30;;;;;;4502436;31;20140;-77
2021/12/22 11:55:52;;;;;;;4.38;2.20;;;21.40;48.30;;;;;;4510824;31;20128;-77
2021/12/22 11:58:32;;;;;;;6.28;1.98;;;21.40;48.10;;;;;;4497643;31;79305;-77
2021/12/22 12:00:59;;;;;;;5.10;2.13;;;21.40;48.10;;;;;;4496788;31;20133;-76
2021/12/22 12:03:40;;;;;;;4.85;2.10;;;21.40;48.20;;;;;;4497053;31;20156;-77
2021/12/22 12:06:07;;;;;;;7.47;2.08;;;21.40;48.30;;;;;;4500507;31;20262;-81
2021/12/22 12:08:37;;;;;;;4.00;2.08;;;21.40;48.50;;;;;;4490038;31;20172;-81
2021/12/22 12:11:08;;;;;;;3.92;2.00;;;21.40;48.60;;;;;;4509543;31;20136;-79
2021/12/22 12:14:07;;;;;;;3.25;1.80;;;21.40;48.80;;;;;;4509644;31;20178;-80
2021/12/22 12:22:34;;;;;;;5.72;2.50;;;21.40;48.60;;;;;;4497807;31;20136;-77
2021/12/22 12:25:14;;;;;;;6.13;2.13;;;21.50;48.60;;;;;;4494906;31;20133;-79
2021/12/22 12:27:40;;;;;;;3.15;2.00;;;21.50;48.50;;;;;;4496515;31;20136;-77
2021/12/22 12:30:11;;;;;;;2.70;1.88;;;21.60;48.50;;;;;;4496604;31;20199;-76
2021/12/22 12:32:39;;;;;;;4.07;2.30;;;21.60;48.50;;;;;;4496571;31;20136;-76
2021/12/22 12:35:23;;;;;;;4.88;1.88;;;21.70;48.40;;;;;;4495360;31;20221;-75
2021/12/22 12:38:06;;;;;;;4.13;1.77;;;21.70;48.40;;;;;;4496842;31;20117;-75
2021/12/22 12:40:54;;;;;;;2.30;1.70;;;21.80;48.30;;;;;;4495898;31;20124;-75
2021/12/22 12:46:24;;;;;;;3.58;1.90;;;21.90;48.10;;;;;;4497069;31;20128;-75
2021/12/22 12:49:19;;;;;;;2.63;1.73;;;22.00;47.90;;;;;;4508503;31;20270;-76
2021/12/22 12:51:47;;;;;;;2.45;1.80;;;22.10;47.90;;;;;;4487478;31;20718;-76
2021/12/22 12:54:20;;;;;;;4.97;1.83;;;22.10;47.90;;;;;;4495420;31;20144;-76
2021/12/22 12:56:50;;;;;;;3.55;2.00;;;22.00;47.90;;;;;;4495198;31;20604;-75
2021/12/22 12:59:17;;;;;;;4.82;1.70;;;22.00;48.10;;;;;;4494794;31;20105;-77
2021/12/22 13:01:51;;;;;;;2.83;1.70;;;21.90;48.30;;;;;;4495429;31;20259;-74
2021/12/22 13:04:29;;;;;;;8.05;2.30;;;21.80;48.40;;;;;;4495124;31;20128;-75
2021/12/22 13:07:07;;;;;;;4.85;2.33;;;21.70;48.00;;;;;;4496070;31;20120;-77
2021/12/22 13:09:35;;;;;;;7.43;2.50;;;21.50;47.90;;;;;;4495205;31;20144;-77
2021/12/22 13:12:11;;;;;;;3.33;2.00;;;21.40;48.10;;;;;;4495019;31;20189;-75
2021/12/22 13:17:25;;;;;;;3.25;1.90;;;21.30;48.70;;;;;;4497138;31;20184;-74
2021/12/22 13:19:55;;;;;;;4.72;1.85;;;21.30;49.00;;;;;;4493792;31;20168;-76
2021/12/22 13:22:30;;;;;;;3.92;2.25;;;21.30;49.10;;;;;;4493887;31;20147;-76
2021/12/22 13:25:12;;;;;;;5.05;2.20;;;21.30;49.30;;;;;;4494997;31;20206;-77
2021/12/22 13:27:41;;;;;;;9.13;2.20;;;21.30;49.30;;;;;;4495789;31;20124;-78
2021/12/22 13:30:15;;;;;;;2.75;1.90;;;21.30;49.40;;;;;;4494759;31;20283;-71